sensor_id;sensor_type;location;lat;lon;timestamp;P1;durP1;ratioP1;P2;durP2;ratioP2
60612;SDS011;46443;59.792;17.626;2022-12-29T00:01:58;6.10;;;2.97;;
60612;SDS011;46443;59.792;17.626;2022-12-29T00:04:24;9.95;;;2.97;;
60612;SDS011;46443;59.792;17.626;2022-12-29T00:06:51;4.35;;;2.50;;
60612;SDS011;46443;59.792;17.626;2022-12-29T00:09:18;6.18;;;2.80;;
60612;SDS011;46443;59.792;17.626;2022-12-29T00:11:44;6.25;;;3.00;;
60612;SDS011;46443;59.792;17.626;2022-12-29T00:14:10;5.53;;;3.40;;
60612;SDS011;46443;59.792;17.626;2022-12-29T00:16:56;9.93;;;3.00;;
60612;SDS011;46443;59.792;17.626;2022-12-29T00:19:22;7.07;;;3.08;;
60612;SDS011;46443;59.792;17.626;2022-12-29T00:22:11;6.45;;;2.88;;
60612;SDS011;46443;59.792;17.626;2022-12-29T00:24:56;4.55;;;2.50;;
60612;SDS011;46443;59.792;17.626;2022-12-29T00:27:41;6.07;;;3.00;;
60612;SDS011;46443;59.792;17.626;2022-12-29T00:30:26;5.38;;;2.58;;
60612;SDS011;46443;59.792;17.626;2022-12-29T00:33:11;7.78;;;3.28;;
60612;SDS011;46443;59.792;17.626;2022-12-29T00:36:16;8.35;;;3.22;;
60612;SDS011;46443;59.792;17.626;2022-12-29T00:38:45;7.45;;;3.35;;
60612;SDS011;46443;59.792;17.626;2022-12-29T00:41:30;8.95;;;3.28;;
60612;SDS011;46443;59.792;17.626;2022-12-29T00:44:15;5.53;;;3.25;;
60612;SDS011;46443;59.792;17.626;2022-12-29T00:46:42;8.88;;;4.05;;
60612;SDS011;46443;59.792;17.626;2022-12-29T00:49:09;9.50;;;3.55;;
60612;SDS011;46443;59.792;17.626;2022-12-29T00:51:55;8.73;;;3.47;;
60612;SDS011;46443;59.792;17.626;2022-12-29T00:54:21;9.48;;;3.92;;
60612;SDS011;46443;59.792;17.626;2022-12-29T00:56:48;5.97;;;3.30;;
60612;SDS011;46443;59.792;17.626;2022-12-29T00:59:14;12.90;;;4.00;;
60612;SDS011;46443;59.792;17.626;2022-12-29T01:01:40;9.10;;;4.05;;
60612;SDS011;46443;59.792;17.626;2022-12-29T01:04:06;6.20;;;3.47;;
60612;SDS011;46443;59.792;17.626;2022-12-29T01:06:33;7.75;;;3.22;;
60612;SDS011;46443;59.792;17.626;2022-12-29T01:09:01;10.52;;;3.92;;
60612;SDS011;46443;59.792;17.626;2022-12-29T01:11:45;7.72;;;3.40;;
60612;SDS011;46443;59.792;17.626;2022-12-29T01:14:11;8.98;;;3.60;;
60612;SDS011;46443;59.792;17.626;2022-12-29T01:16:37;10.93;;;3.58;;
60612;SDS011;46443;59.792;17.626;2022-12-29T01:19:04;7.35;;;3.13;;
60612;SDS011;46443;59.792;17.626;2022-12-29T01:21:30;5.47;;;3.40;;
60612;SDS011;46443;59.792;17.626;2022-12-29T01:23:56;8.05;;;3.35;;
60612;SDS011;46443;59.792;17.626;2022-12-29T01:26:22;7.35;;;3.75;;
60612;SDS011;46443;59.792;17.626;2022-12-29T01:28:48;7.82;;;3.30;;
60612;SDS011;46443;59.792;17.626;2022-12-29T01:31:14;5.67;;;2.70;;
60612;SDS011;46443;59.792;17.626;2022-12-29T01:33:41;9.50;;;3.57;;
60612;SDS011;46443;59.792;17.626;2022-12-29T01:36:08;6.18;;;2.83;;
60612;SDS011;46443;59.792;17.626;2022-12-29T01:38:35;6.83;;;3.20;;
60612;SDS011;46443;59.792;17.626;2022-12-29T01:41:02;6.33;;;2.93;;
60612;SDS011;46443;59.792;17.626;2022-12-29T01:46:32;8.00;;;3.08;;
60612;SDS011;46443;59.792;17.626;2022-12-29T01:49:19;6.40;;;2.97;;
60612;SDS011;46443;59.792;17.626;2022-12-29T01:51:51;7.60;;;3.33;;
60612;SDS011;46443;59.792;17.626;2022-12-29T01:55:00;6.00;;;2.77;;
60612;SDS011;46443;59.792;17.626;2022-12-29T01:57:08;4.90;;;3.03;;
60612;SDS011;46443;59.792;17.626;2022-12-29T01:59:37;8.63;;;3.00;;
60612;SDS011;46443;59.792;17.626;2022-12-29T02:02:04;13.77;;;3.20;;
60612;SDS011;46443;59.792;17.626;2022-12-29T02:04:31;7.90;;;2.93;;
60612;SDS011;46443;59.792;17.626;2022-12-29T02:07:02;6.10;;;3.30;;
60612;SDS011;46443;59.792;17.626;2022-12-29T02:09:31;7.73;;;3.13;;
60612;SDS011;46443;59.792;17.626;2022-12-29T02:11:58;5.63;;;2.77;;
60612;SDS011;46443;59.792;17.626;2022-12-29T02:14:24;7.90;;;3.13;;
60612;SDS011;46443;59.792;17.626;2022-12-29T02:19:39;5.40;;;2.80;;
60612;SDS011;46443;59.792;17.626;2022-12-29T02:22:13;5.50;;;2.87;;
60612;SDS011;46443;59.792;17.626;2022-12-29T02:30:06;8.70;;;2.88;;
60612;SDS011;46443;59.792;17.626;2022-12-29T02:35:26;6.10;;;2.87;;
60612;SDS011;46443;59.792;17.626;2022-12-29T02:40:27;5.33;;;2.43;;
60612;SDS011;46443;59.792;17.626;2022-12-29T02:43:04;6.17;;;2.73;;
60612;SDS011;46443;59.792;17.626;2022-12-29T02:45:38;4.40;;;2.43;;
60612;SDS011;46443;59.792;17.626;2022-12-29T02:50:41;7.30;;;2.63;;
60612;SDS011;46443;59.792;17.626;2022-12-29T02:53:11;5.77;;;2.80;;
60612;SDS011;46443;59.792;17.626;2022-12-29T02:55:39;6.80;;;3.23;;
60612;SDS011;46443;59.792;17.626;2022-12-29T02:58:22;3.60;;;2.20;;
60612;SDS011;46443;59.792;17.626;2022-12-29T03:11:09;8.07;;;2.47;;
60612;SDS011;46443;59.792;17.626;2022-12-29T03:13:56;5.65;;;2.15;;
60612;SDS011;46443;59.792;17.626;2022-12-29T03:21:55;5.63;;;2.37;;
60612;SDS011;46443;59.792;17.626;2022-12-29T03:24:41;6.17;;;2.60;;
60612;SDS011;46443;59.792;17.626;2022-12-29T03:27:09;6.63;;;2.90;;
60612;SDS011;46443;59.792;17.626;2022-12-29T03:29:39;6.63;;;2.60;;
60612;SDS011;46443;59.792;17.626;2022-12-29T03:32:07;6.43;;;2.90;;
60612;SDS011;46443;59.792;17.626;2022-12-29T03:34:34;6.20;;;3.03;;
60612;SDS011;46443;59.792;17.626;2022-12-29T03:37:02;7.87;;;2.83;;
60612;SDS011;46443;59.792;17.626;2022-12-29T03:39:28;5.35;;;2.60;;
60612;SDS011;46443;59.792;17.626;2022-12-29T03:41:56;3.90;;;2.20;;
60612;SDS011;46443;59.792;17.626;2022-12-29T03:44:36;4.93;;;2.28;;
60612;SDS011;46443;59.792;17.626;2022-12-29T03:47:04;5.32;;;2.35;;
60612;SDS011;46443;59.792;17.626;2022-12-29T03:49:30;4.70;;;2.27;;
60612;SDS011;46443;59.792;17.626;2022-12-29T03:51:57;3.93;;;1.90;;
60612;SDS011;46443;59.792;17.626;2022-12-29T03:54:23;4.87;;;2.10;;
60612;SDS011;46443;59.792;17.626;2022-12-29T03:56:49;4.40;;;1.87;;
60612;SDS011;46443;59.792;17.626;2022-12-29T03:59:15;4.77;;;2.00;;
60612;SDS011;46443;59.792;17.626;2022-12-29T04:01:41;4.87;;;2.00;;
60612;SDS011;46443;59.792;17.626;2022-12-29T04:04:07;2.20;;;1.60;;
60612;SDS011;46443;59.792;17.626;2022-12-29T04:06:33;4.03;;;1.90;;
60612;SDS011;46443;59.792;17.626;2022-12-29T04:09:00;5.27;;;2.40;;
60612;SDS011;46443;59.792;17.626;2022-12-29T04:11:26;4.50;;;1.90;;
60612;SDS011;46443;59.792;17.626;2022-12-29T04:13:52;5.40;;;1.80;;
60612;SDS011;46443;59.792;17.626;2022-12-29T04:16:18;4.57;;;2.20;;
60612;SDS011;46443;59.792;17.626;2022-12-29T04:18:44;3.83;;;1.80;;
60612;SDS011;46443;59.792;17.626;2022-12-29T04:21:10;5.33;;;2.30;;
60612;SDS011;46443;59.792;17.626;2022-12-29T04:23:37;4.07;;;1.73;;
60612;SDS011;46443;59.792;17.626;2022-12-29T04:26:04;5.63;;;2.30;;
60612;SDS011;46443;59.792;17.626;2022-12-29T04:31:00;3.63;;;1.93;;
60612;SDS011;46443;59.792;17.626;2022-12-29T04:33:26;4.63;;;2.00;;
60612;SDS011;46443;59.792;17.626;2022-12-29T04:35:52;3.77;;;2.00;;
60612;SDS011;46443;59.792;17.626;2022-12-29T04:38:19;4.97;;;2.33;;
60612;SDS011;46443;59.792;17.626;2022-12-29T04:40:45;4.27;;;2.30;;
60612;SDS011;46443;59.792;17.626;2022-12-29T04:43:12;3.47;;;1.93;;
60612;SDS011;46443;59.792;17.626;2022-12-29T04:45:39;5.07;;;2.67;;
60612;SDS011;46443;59.792;17.626;2022-12-29T04:48:08;3.88;;;2.10;;
60612;SDS011;46443;59.792;17.626;2022-12-29T04:50:34;5.23;;;2.10;;
60612;SDS011;46443;59.792;17.626;2022-12-29T04:53:00;6.03;;;2.50;;
60612;SDS011;46443;59.792;17.626;2022-12-29T04:55:26;4.90;;;2.27;;
60612;SDS011;46443;59.792;17.626;2022-12-29T04:57:52;3.93;;;2.00;;
60612;SDS011;46443;59.792;17.626;2022-12-29T05:00:18;4.73;;;2.10;;
60612;SDS011;46443;59.792;17.626;2022-12-29T05:02:45;3.57;;;2.00;;
60612;SDS011;46443;59.792;17.626;2022-12-29T05:05:11;4.13;;;2.07;;
60612;SDS011;46443;59.792;17.626;2022-12-29T05:07:37;5.30;;;1.90;;
60612;SDS011;46443;59.792;17.626;2022-12-29T05:10:03;3.50;;;2.07;;
60612;SDS011;46443;59.792;17.626;2022-12-29T05:12:30;4.60;;;2.07;;
60612;SDS011;46443;59.792;17.626;2022-12-29T05:14:56;5.60;;;2.20;;
60612;SDS011;46443;59.792;17.626;2022-12-29T05:17:23;5.37;;;2.33;;
60612;SDS011;46443;59.792;17.626;2022-12-29T05:19:49;5.60;;;2.60;;
60612;SDS011;46443;59.792;17.626;2022-12-29T05:22:15;10.00;;;2.83;;
60612;SDS011;46443;59.792;17.626;2022-12-29T05:24:41;12.10;;;3.03;;
60612;SDS011;46443;59.792;17.626;2022-12-29T05:27:07;6.27;;;2.60;;
60612;SDS011;46443;59.792;17.626;2022-12-29T05:29:33;5.87;;;2.37;;
60612;SDS011;46443;59.792;17.626;2022-12-29T05:31:59;7.40;;;2.57;;
60612;SDS011;46443;59.792;17.626;2022-12-29T05:34:25;7.03;;;3.17;;
60612;SDS011;46443;59.792;17.626;2022-12-29T05:36:51;5.73;;;2.60;;
60612;SDS011;46443;59.792;17.626;2022-12-29T05:39:17;7.43;;;2.27;;
60612;SDS011;46443;59.792;17.626;2022-12-29T05:41:43;11.13;;;2.87;;
60612;SDS011;46443;59.792;17.626;2022-12-29T05:44:10;4.87;;;2.57;;
60612;SDS011;46443;59.792;17.626;2022-12-29T05:46:36;8.40;;;3.23;;
60612;SDS011;46443;59.792;17.626;2022-12-29T05:49:02;8.27;;;3.00;;
60612;SDS011;46443;59.792;17.626;2022-12-29T05:51:28;10.47;;;3.30;;
60612;SDS011;46443;59.792;17.626;2022-12-29T05:53:54;12.63;;;3.50;;
60612;SDS011;46443;59.792;17.626;2022-12-29T05:56:21;7.37;;;3.30;;
60612;SDS011;46443;59.792;17.626;2022-12-29T05:58:47;12.97;;;3.20;;
60612;SDS011;46443;59.792;17.626;2022-12-29T06:01:13;8.63;;;3.17;;
60612;SDS011;46443;59.792;17.626;2022-12-29T06:03:39;7.67;;;3.13;;
60612;SDS011;46443;59.792;17.626;2022-12-29T06:06:05;7.27;;;3.13;;
60612;SDS011;46443;59.792;17.626;2022-12-29T06:08:32;8.07;;;2.93;;
60612;SDS011;46443;59.792;17.626;2022-12-29T06:10:58;9.30;;;3.90;;
60612;SDS011;46443;59.792;17.626;2022-12-29T06:13:24;11.80;;;3.40;;
60612;SDS011;46443;59.792;17.626;2022-12-29T06:15:50;8.97;;;3.27;;
60612;SDS011;46443;59.792;17.626;2022-12-29T06:18:16;7.73;;;3.50;;
60612;SDS011;46443;59.792;17.626;2022-12-29T06:20:43;8.67;;;3.30;;
60612;SDS011;46443;59.792;17.626;2022-12-29T06:23:09;9.37;;;3.60;;
60612;SDS011;46443;59.792;17.626;2022-12-29T06:25:37;10.00;;;3.73;;
60612;SDS011;46443;59.792;17.626;2022-12-29T06:28:03;8.60;;;3.93;;
60612;SDS011;46443;59.792;17.626;2022-12-29T06:30:30;7.93;;;3.77;;
60612;SDS011;46443;59.792;17.626;2022-12-29T06:32:56;11.43;;;3.70;;
60612;SDS011;46443;59.792;17.626;2022-12-29T06:35:23;9.63;;;3.90;;
60612;SDS011;46443;59.792;17.626;2022-12-29T06:37:49;8.83;;;3.53;;
60612;SDS011;46443;59.792;17.626;2022-12-29T06:40:15;8.90;;;3.60;;
60612;SDS011;46443;59.792;17.626;2022-12-29T06:42:41;10.00;;;4.00;;
60612;SDS011;46443;59.792;17.626;2022-12-29T06:45:08;11.23;;;5.20;;
60612;SDS011;46443;59.792;17.626;2022-12-29T06:47:34;14.10;;;4.93;;
60612;SDS011;46443;59.792;17.626;2022-12-29T06:50:00;12.50;;;5.30;;
60612;SDS011;46443;59.792;17.626;2022-12-29T06:52:27;11.63;;;4.27;;
60612;SDS011;46443;59.792;17.626;2022-12-29T06:54:53;11.47;;;4.43;;
60612;SDS011;46443;59.792;17.626;2022-12-29T06:57:20;10.47;;;4.77;;
60612;SDS011;46443;59.792;17.626;2022-12-29T06:59:46;13.93;;;5.47;;
60612;SDS011;46443;59.792;17.626;2022-12-29T07:02:12;13.50;;;5.70;;
60612;SDS011;46443;59.792;17.626;2022-12-29T07:04:39;16.27;;;5.13;;
60612;SDS011;46443;59.792;17.626;2022-12-29T07:07:06;13.60;;;5.97;;
60612;SDS011;46443;59.792;17.626;2022-12-29T07:09:32;12.07;;;4.57;;
60612;SDS011;46443;59.792;17.626;2022-12-29T07:11:58;15.03;;;5.80;;
60612;SDS011;46443;59.792;17.626;2022-12-29T07:14:24;12.10;;;4.70;;
60612;SDS011;46443;59.792;17.626;2022-12-29T07:16:50;13.80;;;4.53;;
60612;SDS011;46443;59.792;17.626;2022-12-29T07:19:16;14.90;;;5.10;;
60612;SDS011;46443;59.792;17.626;2022-12-29T07:21:42;9.90;;;4.63;;
60612;SDS011;46443;59.792;17.626;2022-12-29T07:24:08;15.40;;;5.73;;
60612;SDS011;46443;59.792;17.626;2022-12-29T07:26:35;17.40;;;5.60;;
60612;SDS011;46443;59.792;17.626;2022-12-29T07:29:01;12.73;;;5.37;;
60612;SDS011;46443;59.792;17.626;2022-12-29T07:31:27;14.60;;;5.53;;
60612;SDS011;46443;59.792;17.626;2022-12-29T07:33:53;14.60;;;5.40;;
60612;SDS011;46443;59.792;17.626;2022-12-29T07:36:20;15.13;;;5.97;;
60612;SDS011;46443;59.792;17.626;2022-12-29T07:38:46;14.77;;;5.80;;
60612;SDS011;46443;59.792;17.626;2022-12-29T07:41:12;16.17;;;5.13;;
60612;SDS011;46443;59.792;17.626;2022-12-29T07:43:38;15.90;;;5.63;;
60612;SDS011;46443;59.792;17.626;2022-12-29T07:46:05;14.03;;;5.10;;
60612;SDS011;46443;59.792;17.626;2022-12-29T07:48:31;14.33;;;5.50;;
60612;SDS011;46443;59.792;17.626;2022-12-29T07:51:00;15.55;;;5.70;;
60612;SDS011;46443;59.792;17.626;2022-12-29T07:53:26;15.93;;;5.73;;
60612;SDS011;46443;59.792;17.626;2022-12-29T07:55:52;19.23;;;7.37;;
60612;SDS011;46443;59.792;17.626;2022-12-29T07:58:19;17.33;;;5.80;;
60612;SDS011;46443;59.792;17.626;2022-12-29T08:00:45;15.13;;;5.63;;
60612;SDS011;46443;59.792;17.626;2022-12-29T08:03:11;18.60;;;5.47;;
60612;SDS011;46443;59.792;17.626;2022-12-29T08:05:37;21.83;;;5.97;;
60612;SDS011;46443;59.792;17.626;2022-12-29T08:08:03;12.30;;;5.07;;
60612;SDS011;46443;59.792;17.626;2022-12-29T08:10:29;18.70;;;6.43;;
60612;SDS011;46443;59.792;17.626;2022-12-29T08:12:55;14.00;;;5.00;;
60612;SDS011;46443;59.792;17.626;2022-12-29T08:15:21;20.90;;;6.00;;
60612;SDS011;46443;59.792;17.626;2022-12-29T08:17:47;17.37;;;5.63;;
60612;SDS011;46443;59.792;17.626;2022-12-29T08:20:13;15.40;;;4.83;;
60612;SDS011;46443;59.792;17.626;2022-12-29T08:22:40;18.37;;;5.70;;
60612;SDS011;46443;59.792;17.626;2022-12-29T08:25:06;20.33;;;5.83;;
60612;SDS011;46443;59.792;17.626;2022-12-29T08:27:32;16.43;;;5.13;;
60612;SDS011;46443;59.792;17.626;2022-12-29T08:29:58;16.87;;;5.43;;
60612;SDS011;46443;59.792;17.626;2022-12-29T08:32:25;17.33;;;5.40;;
60612;SDS011;46443;59.792;17.626;2022-12-29T08:34:53;19.13;;;6.70;;
60612;SDS011;46443;59.792;17.626;2022-12-29T08:37:19;24.90;;;5.63;;
60612;SDS011;46443;59.792;17.626;2022-12-29T08:39:45;20.67;;;6.50;;
60612;SDS011;46443;59.792;17.626;2022-12-29T08:42:11;22.23;;;5.43;;
60612;SDS011;46443;59.792;17.626;2022-12-29T08:44:37;17.93;;;5.23;;
60612;SDS011;46443;59.792;17.626;2022-12-29T08:47:03;16.77;;;5.70;;
60612;SDS011;46443;59.792;17.626;2022-12-29T08:49:30;22.00;;;5.40;;
60612;SDS011;46443;59.792;17.626;2022-12-29T08:51:56;13.70;;;4.87;;
60612;SDS011;46443;59.792;17.626;2022-12-29T08:54:22;12.73;;;5.03;;
60612;SDS011;46443;59.792;17.626;2022-12-29T08:56:48;14.20;;;5.40;;
60612;SDS011;46443;59.792;17.626;2022-12-29T08:59:14;15.47;;;5.40;;
60612;SDS011;46443;59.792;17.626;2022-12-29T09:01:40;14.27;;;5.30;;
60612;SDS011;46443;59.792;17.626;2022-12-29T09:04:06;12.73;;;5.53;;
60612;SDS011;46443;59.792;17.626;2022-12-29T09:06:33;16.53;;;5.37;;
60612;SDS011;46443;59.792;17.626;2022-12-29T09:08:59;12.70;;;5.40;;
60612;SDS011;46443;59.792;17.626;2022-12-29T09:11:25;13.90;;;4.27;;
60612;SDS011;46443;59.792;17.626;2022-12-29T09:13:52;17.13;;;5.20;;
60612;SDS011;46443;59.792;17.626;2022-12-29T09:16:18;13.07;;;5.27;;
60612;SDS011;46443;59.792;17.626;2022-12-29T09:18:46;13.93;;;5.13;;
60612;SDS011;46443;59.792;17.626;2022-12-29T09:21:12;10.97;;;4.77;;
60612;SDS011;46443;59.792;17.626;2022-12-29T09:23:39;17.03;;;5.20;;
60612;SDS011;46443;59.792;17.626;2022-12-29T09:26:05;14.97;;;4.97;;
60612;SDS011;46443;59.792;17.626;2022-12-29T09:28:32;15.33;;;5.53;;
60612;SDS011;46443;59.792;17.626;2022-12-29T09:30:59;12.20;;;4.60;;
60612;SDS011;46443;59.792;17.626;2022-12-29T09:33:25;12.43;;;4.47;;
60612;SDS011;46443;59.792;17.626;2022-12-29T09:35:52;13.07;;;5.53;;
60612;SDS011;46443;59.792;17.626;2022-12-29T09:38:19;13.67;;;5.03;;
60612;SDS011;46443;59.792;17.626;2022-12-29T09:40:46;14.03;;;5.50;;
60612;SDS011;46443;59.792;17.626;2022-12-29T09:48:45;19.53;;;5.67;;
60612;SDS011;46443;59.792;17.626;2022-12-29T09:51:15;14.17;;;4.63;;
60612;SDS011;46443;59.792;17.626;2022-12-29T09:53:42;12.93;;;5.33;;
60612;SDS011;46443;59.792;17.626;2022-12-29T09:56:15;14.20;;;4.53;;
60612;SDS011;46443;59.792;17.626;2022-12-29T09:58:44;13.93;;;4.63;;
60612;SDS011;46443;59.792;17.626;2022-12-29T10:03:45;14.40;;;4.70;;
60612;SDS011;46443;59.792;17.626;2022-12-29T10:11:15;19.17;;;5.78;;
60612;SDS011;46443;59.792;17.626;2022-12-29T10:16:20;13.17;;;4.63;;
60612;SDS011;46443;59.792;17.626;2022-12-29T10:18:57;11.73;;;4.97;;
60612;SDS011;46443;59.792;17.626;2022-12-29T10:23:58;9.30;;;3.87;;
60612;SDS011;46443;59.792;17.626;2022-12-29T10:26:30;12.57;;;4.90;;
60612;SDS011;46443;59.792;17.626;2022-12-29T10:28:58;11.27;;;4.33;;
60612;SDS011;46443;59.792;17.626;2022-12-29T10:31:32;10.13;;;4.03;;
60612;SDS011;46443;59.792;17.626;2022-12-29T10:34:01;8.80;;;4.00;;
60612;SDS011;46443;59.792;17.626;2022-12-29T10:44:06;12.00;;;3.90;;
60612;SDS011;46443;59.792;17.626;2022-12-29T10:46:35;9.52;;;3.38;;
60612;SDS011;46443;59.792;17.626;2022-12-29T10:49:02;9.63;;;3.87;;
60612;SDS011;46443;59.792;17.626;2022-12-29T10:51:38;7.17;;;3.33;;
60612;SDS011;46443;59.792;17.626;2022-12-29T10:56:51;6.43;;;3.30;;
60612;SDS011;46443;59.792;17.626;2022-12-29T11:04:41;6.63;;;3.03;;
60612;SDS011;46443;59.792;17.626;2022-12-29T11:07:08;6.72;;;3.45;;
60612;SDS011;46443;59.792;17.626;2022-12-29T11:09:36;7.80;;;3.37;;
60612;SDS011;46443;59.792;17.626;2022-12-29T11:12:19;8.77;;;3.03;;
60612;SDS011;46443;59.792;17.626;2022-12-29T11:14:45;7.80;;;3.33;;
60612;SDS011;46443;59.792;17.626;2022-12-29T11:17:16;6.87;;;2.80;;
60612;SDS011;46443;59.792;17.626;2022-12-29T11:19:43;6.47;;;2.90;;
60612;SDS011;46443;59.792;17.626;2022-12-29T11:22:13;6.13;;;2.83;;
60612;SDS011;46443;59.792;17.626;2022-12-29T11:24:44;6.60;;;3.00;;
60612;SDS011;46443;59.792;17.626;2022-12-29T11:27:18;4.97;;;2.70;;
60612;SDS011;46443;59.792;17.626;2022-12-29T11:29:45;5.03;;;2.50;;
60612;SDS011;46443;59.792;17.626;2022-12-29T11:34:37;5.37;;;2.87;;
60612;SDS011;46443;59.792;17.626;2022-12-29T11:39:36;6.67;;;2.60;;
60612;SDS011;46443;59.792;17.626;2022-12-29T11:42:03;7.50;;;2.40;;
60612;SDS011;46443;59.792;17.626;2022-12-29T11:44:35;5.07;;;2.37;;
60612;SDS011;46443;59.792;17.626;2022-12-29T11:49:27;3.97;;;2.23;;
60612;SDS011;46443;59.792;17.626;2022-12-29T11:51:54;5.50;;;2.17;;
60612;SDS011;46443;59.792;17.626;2022-12-29T11:54:42;5.53;;;2.30;;
60612;SDS011;46443;59.792;17.626;2022-12-29T11:57:14;4.53;;;2.10;;
60612;SDS011;46443;59.792;17.626;2022-12-29T11:59:48;6.43;;;2.67;;
60612;SDS011;46443;59.792;17.626;2022-12-29T12:07:42;4.97;;;2.70;;
60612;SDS011;46443;59.792;17.626;2022-12-29T12:10:15;6.87;;;2.50;;
60612;SDS011;46443;59.792;17.626;2022-12-29T12:15:27;5.73;;;2.77;;
60612;SDS011;46443;59.792;17.626;2022-12-29T12:18:00;6.53;;;3.20;;
60612;SDS011;46443;59.792;17.626;2022-12-29T12:20:32;7.37;;;3.53;;
60612;SDS011;46443;59.792;17.626;2022-12-29T12:23:06;8.37;;;3.67;;
60612;SDS011;46443;59.792;17.626;2022-12-29T12:25:45;7.27;;;3.80;;
60612;SDS011;46443;59.792;17.626;2022-12-29T12:28:15;8.23;;;4.28;;
60612;SDS011;46443;59.792;17.626;2022-12-29T12:30:44;8.63;;;3.80;;
60612;SDS011;46443;59.792;17.626;2022-12-29T12:43:18;7.37;;;4.07;;
60612;SDS011;46443;59.792;17.626;2022-12-29T12:56:03;8.27;;;4.40;;
60612;SDS011;46443;59.792;17.626;2022-12-29T13:06:34;9.23;;;4.83;;
60612;SDS011;46443;59.792;17.626;2022-12-29T13:19:34;8.53;;;4.77;;
60612;SDS011;46443;59.792;17.626;2022-12-29T13:22:13;7.93;;;4.20;;
60612;SDS011;46443;59.792;17.626;2022-12-29T13:27:14;9.17;;;4.73;;
60612;SDS011;46443;59.792;17.626;2022-12-29T13:29:58;10.10;;;4.20;;
60612;SDS011;46443;59.792;17.626;2022-12-29T13:38:14;9.88;;;5.25;;
60612;SDS011;46443;59.792;17.626;2022-12-29T13:40:46;9.03;;;4.93;;
60612;SDS011;46443;59.792;17.626;2022-12-29T13:43:14;8.33;;;4.50;;
60612;SDS011;46443;59.792;17.626;2022-12-29T13:45:41;9.00;;;4.90;;
60612;SDS011;46443;59.792;17.626;2022-12-29T13:48:15;9.87;;;5.00;;
60612;SDS011;46443;59.792;17.626;2022-12-29T13:50:43;6.43;;;3.80;;
60612;SDS011;46443;59.792;17.626;2022-12-29T13:53:30;7.30;;;4.00;;
60612;SDS011;46443;59.792;17.626;2022-12-29T13:58:39;9.60;;;3.67;;
60612;SDS011;46443;59.792;17.626;2022-12-29T14:01:29;8.03;;;3.87;;
60612;SDS011;46443;59.792;17.626;2022-12-29T14:03:57;6.53;;;3.87;;
60612;SDS011;46443;59.792;17.626;2022-12-29T14:06:34;7.60;;;3.77;;
60612;SDS011;46443;59.792;17.626;2022-12-29T14:09:06;8.07;;;4.23;;
60612;SDS011;46443;59.792;17.626;2022-12-29T14:11:33;10.90;;;3.93;;
60612;SDS011;46443;59.792;17.626;2022-12-29T14:13:59;8.67;;;4.10;;
60612;SDS011;46443;59.792;17.626;2022-12-29T14:16:36;8.33;;;3.57;;
60612;SDS011;46443;59.792;17.626;2022-12-29T14:19:04;6.20;;;3.40;;
60612;SDS011;46443;59.792;17.626;2022-12-29T14:21:30;7.83;;;3.50;;
60612;SDS011;46443;59.792;17.626;2022-12-29T14:26:56;6.10;;;3.70;;
60612;SDS011;46443;59.792;17.626;2022-12-29T14:31:51;7.30;;;3.57;;
60612;SDS011;46443;59.792;17.626;2022-12-29T14:42:19;5.07;;;3.00;;
60612;SDS011;46443;59.792;17.626;2022-12-29T14:47:26;6.78;;;3.70;;
60612;SDS011;46443;59.792;17.626;2022-12-29T14:49:54;6.67;;;3.80;;
60612;SDS011;46443;59.792;17.626;2022-12-29T14:54:50;6.87;;;3.60;;
60612;SDS011;46443;59.792;17.626;2022-12-29T14:59:42;7.33;;;3.30;;
60612;SDS011;46443;59.792;17.626;2022-12-29T15:02:31;7.47;;;3.27;;
60612;SDS011;46443;59.792;17.626;2022-12-29T15:04:59;7.60;;;3.63;;
60612;SDS011;46443;59.792;17.626;2022-12-29T15:07:26;7.30;;;4.00;;
60612;SDS011;46443;59.792;17.626;2022-12-29T15:10:13;7.83;;;4.80;;
60612;SDS011;46443;59.792;17.626;2022-12-29T15:12:41;9.33;;;4.53;;
60612;SDS011;46443;59.792;17.626;2022-12-29T15:15:31;10.57;;;3.97;;
60612;SDS011;46443;59.792;17.626;2022-12-29T15:17:55;7.13;;;3.90;;
60612;SDS011;46443;59.792;17.626;2022-12-29T15:20:29;7.87;;;4.40;;
60612;SDS011;46443;59.792;17.626;2022-12-29T15:25:21;11.63;;;5.70;;
60612;SDS011;46443;59.792;17.626;2022-12-29T15:27:48;13.17;;;5.17;;
60612;SDS011;46443;59.792;17.626;2022-12-29T15:30:15;9.43;;;4.77;;
60612;SDS011;46443;59.792;17.626;2022-12-29T15:32:42;9.83;;;4.97;;
60612;SDS011;46443;59.792;17.626;2022-12-29T15:35:29;10.83;;;5.53;;
60612;SDS011;46443;59.792;17.626;2022-12-29T15:37:55;12.07;;;6.27;;
60612;SDS011;46443;59.792;17.626;2022-12-29T15:40:28;12.60;;;6.17;;
60612;SDS011;46443;59.792;17.626;2022-12-29T15:45:39;12.37;;;6.47;;
60612;SDS011;46443;59.792;17.626;2022-12-29T15:48:07;12.47;;;6.30;;
60612;SDS011;46443;59.792;17.626;2022-12-29T15:53:02;13.43;;;6.70;;
60612;SDS011;46443;59.792;17.626;2022-12-29T15:55:32;12.77;;;6.87;;
60612;SDS011;46443;59.792;17.626;2022-12-29T15:58:00;11.57;;;6.53;;
60612;SDS011;46443;59.792;17.626;2022-12-29T16:00:29;11.80;;;6.30;;
60612;SDS011;46443;59.792;17.626;2022-12-29T16:02:55;13.50;;;6.43;;
60612;SDS011;46443;59.792;17.626;2022-12-29T16:05:22;13.17;;;6.07;;
60612;SDS011;46443;59.792;17.626;2022-12-29T16:07:55;11.57;;;6.10;;
60612;SDS011;46443;59.792;17.626;2022-12-29T16:10:38;13.57;;;6.10;;
60612;SDS011;46443;59.792;17.626;2022-12-29T16:15:47;14.63;;;7.57;;
60612;SDS011;46443;59.792;17.626;2022-12-29T16:18:26;13.20;;;7.00;;
60612;SDS011;46443;59.792;17.626;2022-12-29T16:20:53;14.23;;;7.60;;
60612;SDS011;46443;59.792;17.626;2022-12-29T16:23:22;13.73;;;6.60;;
60612;SDS011;46443;59.792;17.626;2022-12-29T16:25:49;11.97;;;6.40;;
60612;SDS011;46443;59.792;17.626;2022-12-29T16:28:20;15.70;;;8.00;;
60612;SDS011;46443;59.792;17.626;2022-12-29T16:30:47;17.27;;;7.60;;
60612;SDS011;46443;59.792;17.626;2022-12-29T16:33:39;18.53;;;10.20;;
60612;SDS011;46443;59.792;17.626;2022-12-29T16:38:47;18.27;;;8.90;;
60612;SDS011;46443;59.792;17.626;2022-12-29T16:41:27;19.50;;;9.27;;
60612;SDS011;46443;59.792;17.626;2022-12-29T16:46:40;15.17;;;7.83;;
60612;SDS011;46443;59.792;17.626;2022-12-29T16:49:13;14.97;;;8.10;;
60612;SDS011;46443;59.792;17.626;2022-12-29T16:51:40;18.30;;;9.73;;
60612;SDS011;46443;59.792;17.626;2022-12-29T16:54:13;18.47;;;8.73;;
60612;SDS011;46443;59.792;17.626;2022-12-29T16:56:43;18.17;;;9.57;;
60612;SDS011;46443;59.792;17.626;2022-12-29T17:01:55;20.13;;;8.63;;
60612;SDS011;46443;59.792;17.626;2022-12-29T17:04:22;19.03;;;8.97;;
60612;SDS011;46443;59.792;17.626;2022-12-29T17:06:48;18.73;;;9.13;;
60612;SDS011;46443;59.792;17.626;2022-12-29T17:09:27;20.03;;;8.70;;
60612;SDS011;46443;59.792;17.626;2022-12-29T17:11:54;20.17;;;9.85;;
60612;SDS011;46443;59.792;17.626;2022-12-29T17:14:31;21.40;;;9.33;;
60612;SDS011;46443;59.792;17.626;2022-12-29T17:16:58;17.77;;;8.97;;
60612;SDS011;46443;59.792;17.626;2022-12-29T17:19:32;22.23;;;9.10;;
60612;SDS011;46443;59.792;17.626;2022-12-29T17:21:59;20.10;;;8.83;;
60612;SDS011;46443;59.792;17.626;2022-12-29T17:24:25;18.03;;;8.63;;
60612;SDS011;46443;59.792;17.626;2022-12-29T17:26:52;17.80;;;8.60;;
60612;SDS011;46443;59.792;17.626;2022-12-29T17:29:21;23.30;;;9.63;;
60612;SDS011;46443;59.792;17.626;2022-12-29T17:31:51;17.63;;;8.07;;
60612;SDS011;46443;59.792;17.626;2022-12-29T17:34:18;17.07;;;7.57;;
60612;SDS011;46443;59.792;17.626;2022-12-29T17:36:44;17.10;;;7.00;;